createdAt,value
2018-06-19T00:00:43.196Z,6.20
2018-06-19T00:03:13.009Z,6.73
2018-06-19T00:05:42.410Z,6.03
2018-06-19T00:08:12.497Z,6.87
2018-06-19T00:25:05.671Z,6.53
2018-06-19T00:36:53.790Z,6.17
2018-06-19T00:45:27.323Z,5.03
2018-06-19T00:47:57.904Z,5.50
2018-06-19T00:50:27.013Z,5.70
2018-06-19T00:52:58.965Z,5.23
2018-06-19T00:55:32.309Z,6.20
2018-06-19T01:00:47.295Z,5.80
2018-06-19T01:03:18.376Z,4.67
2018-06-19T01:24:04.458Z,4.20
2018-06-19T01:26:35.783Z,4.10
2018-06-19T01:29:08.335Z,3.47
2018-06-19T01:31:37.677Z,3.80
2018-06-19T01:34:06.911Z,3.63
2018-06-19T01:36:37.187Z,3.70
2018-06-19T01:39:11.340Z,3.37
2018-06-19T01:41:46.561Z,3.30
2018-06-19T01:44:19.138Z,3.90
2018-06-19T01:46:48.721Z,4.17
2018-06-19T01:49:17.747Z,3.73
2018-06-19T01:51:47.014Z,4.00
2018-06-19T01:54:16.059Z,3.90
2018-06-19T01:56:45.190Z,3.57
2018-06-19T01:59:14.249Z,3.67
2018-06-19T02:01:43.471Z,3.37
2018-06-19T02:04:12.494Z,3.50
2018-06-19T02:06:41.658Z,3.47
2018-06-19T02:09:12.115Z,3.80
2018-06-19T02:11:41.285Z,4.10
2018-06-19T02:14:10.528Z,3.33
2018-06-19T02:16:40.172Z,3.73
2018-06-19T02:19:09.427Z,4.67
2018-06-19T02:21:38.711Z,3.73
2018-06-19T02:24:07.975Z,4.50
2018-06-19T02:26:37.171Z,3.63
2018-06-19T02:29:06.391Z,3.53
2018-06-19T02:31:36.361Z,4.10
2018-06-19T02:54:22.244Z,5.07
2018-06-19T02:59:43.564Z,5.07
2018-06-19T03:02:16.879Z,5.57
2018-06-19T03:04:46.118Z,4.73
2018-06-19T03:07:15.345Z,5.13
2018-06-19T03:09:44.447Z,5.63
2018-06-19T03:12:13.446Z,5.37
2018-06-19T03:14:42.642Z,5.03
2018-06-19T03:17:12.008Z,4.70
2018-06-19T03:19:41.060Z,5.33
2018-06-19T03:22:11.036Z,4.60
2018-06-19T03:24:40.195Z,4.90
2018-06-19T03:27:09.232Z,4.37
2018-06-19T03:29:38.334Z,5.10
2018-06-19T03:32:07.958Z,3.97
2018-06-19T03:34:37.364Z,4.10
2018-06-19T03:37:09.933Z,4.30
2018-06-19T03:39:41.625Z,4.07
2018-06-19T03:42:11.182Z,4.57
2018-06-19T03:44:41.724Z,4.60
2018-06-19T03:47:34.761Z,5.13
2018-06-19T03:50:04.228Z,4.87
2018-06-19T03:52:33.549Z,4.67
2018-06-19T03:55:12.496Z,5.67
2018-06-19T03:57:43.505Z,4.60
2018-06-19T04:00:15.952Z,4.15
2018-06-19T04:02:46.936Z,4.37
2018-06-19T04:08:09.025Z,3.77
2018-06-19T04:11:14.185Z,3.85
2018-06-19T04:14:53.452Z,3.55
2018-06-19T04:17:29.668Z,3.60
2018-06-19T04:19:59.555Z,3.77
2018-06-19T04:22:34.606Z,3.70
2018-06-19T04:25:03.776Z,3.72
2018-06-19T04:27:33.501Z,3.17
2018-06-19T04:30:03.183Z,3.50
2018-06-19T04:32:33.226Z,3.67
2018-06-19T04:35:03.696Z,3.90
2018-06-19T04:37:33.089Z,3.90
2018-06-19T04:40:05.991Z,3.45
2018-06-19T04:42:35.310Z,3.35
2018-06-19T04:45:04.421Z,3.77
2018-06-19T04:47:37.654Z,3.80
2018-06-19T04:50:06.777Z,3.45
2018-06-19T04:52:35.834Z,3.12
2018-06-19T04:55:04.976Z,3.33
2018-06-19T04:57:34.146Z,3.27
2018-06-19T05:00:03.295Z,3.10
2018-06-19T05:02:32.488Z,3.52
2018-06-19T05:05:01.573Z,3.45
2018-06-19T05:07:30.633Z,3.00
2018-06-19T05:10:00.000Z,3.60
2018-06-19T05:12:28.971Z,3.50
2018-06-19T05:14:58.095Z,3.22
2018-06-19T05:17:27.709Z,3.80
2018-06-19T05:19:56.673Z,3.47
2018-06-19T05:22:25.752Z,3.45
2018-06-19T05:24:54.863Z,3.35
2018-06-19T05:27:24.056Z,3.67
2018-06-19T05:29:53.039Z,3.12
2018-06-19T05:32:23.027Z,4.33
2018-06-19T05:34:52.157Z,4.60
2018-06-19T05:37:21.757Z,4.75
2018-06-19T05:39:51.893Z,4.65
2018-06-19T05:42:21.124Z,4.75
2018-06-19T05:44:50.182Z,3.70
2018-06-19T05:47:19.758Z,3.90
2018-06-19T05:49:48.816Z,3.70
2018-06-19T05:52:17.945Z,3.42
2018-06-19T05:54:47.653Z,3.20
2018-06-19T05:57:16.585Z,3.05
2018-06-19T05:59:45.567Z,3.12
2018-06-19T06:02:14.584Z,2.65
2018-06-19T06:04:43.436Z,2.75
2018-06-19T06:07:12.741Z,3.50
2018-06-19T06:09:41.703Z,2.65
2018-06-19T06:12:12.556Z,3.00
2018-06-19T06:14:43.106Z,2.80
2018-06-19T06:17:12.572Z,2.60
2018-06-19T06:19:41.614Z,3.45
2018-06-19T06:22:11.270Z,2.95
2018-06-19T06:24:40.253Z,2.85
2018-06-19T06:27:09.341Z,3.00
2018-06-19T06:29:38.824Z,3.02
2018-06-19T06:32:07.874Z,3.47
2018-06-19T06:34:36.836Z,3.00
2018-06-19T06:37:05.935Z,3.10
2018-06-19T06:39:34.958Z,3.75
2018-06-19T06:42:03.955Z,3.25
2018-06-19T06:44:33.426Z,3.25
2018-06-19T06:47:02.474Z,3.70
2018-06-19T06:49:31.553Z,3.62
2018-06-19T06:52:01.049Z,3.42
2018-06-19T06:54:30.016Z,3.40
2018-06-19T06:57:01.672Z,4.10
2018-06-19T06:59:32.411Z,3.35
2018-06-19T07:02:02.678Z,3.30
2018-06-19T07:04:31.697Z,3.80
2018-06-19T07:07:00.635Z,3.25
2018-06-19T07:09:30.100Z,3.72
2018-06-19T07:14:48.888Z,3.52
2018-06-19T07:17:18.115Z,3.27
2018-06-19T07:19:48.921Z,3.30
2018-06-19T07:22:26.143Z,3.30
2018-06-19T07:24:57.148Z,3.02
2018-06-19T07:27:28.225Z,2.90
2018-06-19T07:29:57.567Z,4.95
2018-06-19T07:32:28.735Z,4.08
2018-06-19T07:35:00.233Z,3.50
2018-06-19T09:28:37.129Z,3.35
2018-06-19T09:31:07.482Z,3.22
2018-06-19T09:33:36.449Z,2.72
2018-06-19T09:36:06.061Z,2.80
2018-06-19T09:38:35.124Z,3.00
2018-06-19T09:41:06.011Z,2.83
2018-06-19T09:43:36.915Z,3.30
2018-06-19T09:46:08.616Z,3.17
2018-06-19T09:48:37.622Z,3.10
2018-06-19T09:51:06.602Z,3.12
2018-06-19T09:53:36.007Z,3.45
2018-06-19T09:58:39.511Z,2.67
2018-06-19T10:01:08.476Z,3.12
2018-06-19T10:03:37.948Z,3.30
2018-06-19T10:11:14.192Z,3.17
2018-06-19T10:13:43.247Z,3.72
2018-06-19T10:16:14.571Z,3.08
2018-06-19T10:18:44.106Z,3.08
2018-06-19T10:23:46.770Z,3.25
2018-06-19T10:26:16.170Z,4.37
2018-06-19T10:28:45.138Z,7.40
2018-06-19T10:31:15.329Z,11.80
2018-06-19T10:36:18.216Z,4.10
2018-06-19T10:38:47.157Z,4.87
2018-06-19T10:43:50.420Z,3.50
2018-06-19T10:48:52.901Z,3.50
2018-06-19T10:51:21.970Z,4.45
2018-06-19T10:56:25.230Z,3.10
2018-06-19T10:58:54.183Z,3.25
2018-06-19T11:01:23.066Z,3.22
2018-06-19T11:03:53.030Z,2.72
2018-06-19T11:06:22.257Z,3.00
2018-06-19T11:13:58.650Z,2.85
2018-06-19T11:16:31.862Z,2.25
2018-06-19T11:24:13.356Z,3.27
2018-06-19T11:26:42.443Z,3.75
2018-06-19T11:34:20.917Z,2.70
2018-06-19T11:39:23.563Z,2.95
2018-06-19T11:41:52.744Z,3.17
2018-06-19T11:46:55.375Z,2.58
2018-06-19T11:49:24.421Z,2.35
2018-06-19T11:51:53.341Z,3.00
2018-06-19T11:54:22.653Z,3.25
2018-06-19T11:56:51.601Z,3.00
2018-06-19T12:04:27.824Z,3.45
2018-06-19T12:06:56.961Z,3.08
2018-06-19T12:09:26.037Z,3.20
2018-06-19T12:17:01.301Z,2.77
2018-06-19T12:19:30.728Z,2.20
2018-06-19T12:21:59.630Z,2.40
2018-06-19T12:24:28.806Z,2.65
2018-06-19T12:26:58.109Z,2.98
2018-06-19T12:29:27.271Z,2.75
2018-06-19T12:31:56.316Z,2.95
2018-06-19T12:34:25.901Z,2.40
2018-06-19T12:36:54.990Z,3.08
2018-06-19T12:39:24.120Z,3.42
2018-06-19T12:41:53.712Z,2.08
2018-06-19T12:44:22.708Z,3.75
2018-06-19T12:46:52.037Z,2.70
2018-06-19T12:49:33.114Z,2.60
2018-06-19T12:52:12.951Z,2.33
2018-06-19T12:55:22.902Z,2.95
2018-06-19T12:57:52.058Z,2.42
2018-06-19T13:00:21.127Z,2.85
2018-06-19T13:03:01.649Z,3.70
2018-06-19T13:05:41.669Z,2.35
2018-06-19T13:08:12.964Z,3.00
2018-06-19T13:10:42.025Z,2.72
2018-06-19T13:13:25.295Z,2.85
2018-06-19T13:16:01.124Z,2.85
2018-06-19T13:18:42.096Z,2.98
2018-06-19T13:21:12.365Z,2.30
2018-06-19T13:23:41.367Z,2.45
2018-06-19T13:26:11.254Z,2.83
2018-06-19T13:29:53.646Z,2.30
2018-06-19T13:32:23.355Z,2.40
2018-06-19T13:34:52.300Z,2.10
2018-06-19T13:37:21.351Z,2.00
2018-06-19T13:41:05.362Z,2.02
2018-06-19T13:43:45.626Z,1.87
2018-06-19T13:46:15.211Z,1.95
2018-06-19T13:48:44.412Z,2.17
2018-06-19T13:51:13.958Z,1.98
2018-06-19T13:53:44.200Z,2.20
2018-06-19T13:57:32.506Z,2.25
2018-06-19T14:00:06.499Z,1.98
2018-06-19T14:02:35.776Z,2.20
2018-06-19T14:05:05.496Z,2.30
2018-06-19T14:07:41.276Z,2.33
2018-06-19T14:10:25.526Z,2.08
2018-06-19T14:13:09.067Z,2.08
2018-06-19T14:15:41.742Z,2.45
2018-06-19T14:18:11.527Z,1.80
2018-06-19T14:20:40.910Z,2.08
2018-06-19T14:23:09.927Z,2.05
2018-06-19T14:25:39.233Z,1.70
2018-06-19T14:28:13.645Z,2.10
2018-06-19T14:30:43.360Z,1.72
2018-06-19T14:33:12.672Z,2.50
2018-06-19T14:35:41.924Z,1.75
2018-06-19T14:38:11.425Z,2.00
2018-06-19T14:40:40.413Z,1.92
2018-06-19T14:43:10.748Z,1.82
2018-06-19T14:45:40.040Z,1.80
2018-06-19T14:48:08.943Z,1.85
2018-06-19T14:50:37.862Z,2.10
2018-06-19T14:53:06.898Z,1.72
2018-06-19T14:55:35.855Z,2.05
2018-06-19T14:58:05.030Z,2.00
2018-06-19T15:00:34.170Z,1.87
2018-06-19T15:03:03.136Z,2.87
2018-06-19T15:05:32.220Z,2.55
2018-06-19T15:08:01.302Z,1.80
2018-06-19T15:10:30.178Z,2.20
2018-06-19T15:12:59.174Z,1.95
2018-06-19T15:15:28.209Z,2.52
2018-06-19T15:17:57.306Z,2.02
2018-06-19T15:20:26.276Z,2.27
2018-06-19T15:22:55.199Z,2.12
2018-06-19T15:25:24.336Z,2.40
2018-06-19T15:27:53.478Z,2.10
2018-06-19T15:30:22.763Z,2.10
2018-06-19T15:32:51.729Z,2.33
2018-06-19T15:35:20.794Z,2.25
2018-06-19T15:37:49.882Z,2.27
2018-06-19T15:40:19.037Z,2.25
2018-06-19T15:42:48.172Z,2.55
2018-06-19T15:45:17.357Z,2.47
2018-06-19T15:54:31.458Z,2.05
2018-06-19T15:57:00.440Z,1.70
2018-06-19T15:59:29.567Z,1.90
2018-06-19T16:01:58.882Z,1.87
2018-06-19T16:04:31.433Z,1.90
2018-06-19T16:07:00.938Z,2.25
2018-06-19T16:09:30.442Z,2.50
2018-06-19T16:11:59.704Z,2.30
2018-06-19T16:14:29.955Z,2.33
2018-06-19T16:16:59.127Z,2.35
2018-06-19T16:19:29.284Z,1.85
2018-06-19T16:22:03.254Z,2.40
2018-06-19T16:24:34.782Z,2.25
2018-06-19T16:27:04.324Z,2.25
2018-06-19T16:29:33.606Z,2.30
2018-06-19T16:32:03.023Z,2.33
2018-06-19T16:34:35.704Z,2.60
2018-06-19T16:37:08.647Z,2.67
2018-06-19T16:39:38.111Z,2.37
2018-06-19T16:42:08.468Z,2.27
2018-06-19T16:44:37.935Z,2.60
2018-06-19T16:47:08.284Z,3.22
2018-06-19T16:49:37.415Z,2.90
2018-06-19T16:52:06.871Z,2.65
2018-06-19T16:54:35.994Z,2.25
2018-06-19T16:57:05.365Z,2.33
2018-06-19T16:59:34.767Z,2.75
2018-06-19T17:02:06.081Z,2.42
2018-06-19T17:04:35.396Z,2.65
2018-06-19T17:07:05.039Z,2.50
2018-06-19T17:09:34.170Z,2.77
2018-06-19T17:12:04.518Z,2.25
2018-06-19T17:14:33.629Z,2.65
2018-06-19T17:17:03.028Z,2.40
2018-06-19T17:19:32.372Z,2.70
2018-06-19T17:22:01.644Z,2.90
2018-06-19T17:24:32.072Z,2.33
2018-06-19T17:27:02.995Z,2.75
2018-06-19T17:29:32.421Z,2.15
2018-06-19T17:32:01.641Z,3.20
2018-06-19T17:34:31.067Z,2.75
2018-06-19T17:39:53.866Z,2.65
2018-06-19T17:42:23.173Z,2.70
2018-06-19T17:44:57.180Z,3.08
2018-06-19T17:47:26.602Z,2.72
2018-06-19T17:49:56.249Z,2.80
2018-06-19T17:52:25.634Z,3.10
2018-06-19T17:54:55.089Z,3.05
2018-06-19T17:57:24.349Z,3.08
2018-06-19T17:59:53.766Z,3.10
2018-06-19T18:02:23.031Z,3.25
2018-06-19T18:04:52.247Z,3.05
2018-06-19T18:07:21.677Z,2.85
2018-06-19T18:09:50.899Z,2.92
2018-06-19T18:12:20.029Z,3.45
2018-06-19T18:14:49.551Z,3.02
2018-06-19T18:19:26.144Z,3.50
2018-06-19T18:21:55.359Z,3.17
2018-06-19T18:24:25.752Z,3.20
2018-06-19T18:26:54.899Z,3.50
2018-06-19T18:29:23.882Z,4.15
2018-06-19T18:31:53.085Z,3.85
2018-06-19T18:34:22.073Z,4.40
2018-06-19T18:36:51.222Z,3.70
2018-06-19T18:39:20.276Z,3.70
2018-06-19T18:41:49.607Z,4.42
2018-06-19T18:44:18.765Z,4.22
2018-06-19T18:46:48.125Z,4.10
2018-06-19T18:49:17.310Z,4.70
2018-06-19T18:51:46.436Z,4.97
2018-06-19T18:54:15.702Z,5.35
2018-06-19T18:56:45.893Z,5.70
2018-06-19T18:59:14.927Z,4.70
2018-06-19T19:01:44.069Z,5.60
2018-06-19T19:04:13.331Z,4.62
2018-06-19T19:06:42.489Z,5.92
2018-06-19T19:09:11.935Z,6.95
2018-06-19T19:11:41.029Z,6.75
2018-06-19T19:14:10.110Z,7.50
2018-06-19T19:16:44.084Z,5.67
2018-06-19T19:19:16.807Z,5.25
2018-06-19T19:21:45.967Z,5.83
2018-06-19T19:24:14.991Z,5.50
2018-06-19T19:26:49.219Z,9.33
2018-06-19T19:29:23.244Z,7.00
2018-06-19T19:31:52.407Z,7.42
2018-06-19T19:34:21.523Z,6.45
2018-06-19T19:36:55.576Z,7.10
2018-06-19T19:39:27.870Z,7.85
2018-06-19T19:41:56.889Z,7.37
2018-06-19T19:44:26.032Z,7.78
2018-06-19T19:49:03.814Z,7.60
2018-06-19T19:51:32.847Z,5.55
2018-06-19T19:54:01.982Z,5.17
2018-06-19T19:56:36.578Z,5.55
2018-06-19T19:59:06.833Z,4.83
2018-06-19T20:01:36.027Z,5.45
2018-06-19T20:04:04.967Z,5.62
2018-06-19T20:06:40.365Z,5.28
2018-06-19T20:09:10.243Z,4.85
2018-06-19T20:11:39.245Z,4.70
2018-06-19T20:14:12.141Z,4.87
2018-06-19T20:16:41.308Z,4.85
2018-06-19T20:19:10.360Z,4.97
2018-06-19T20:21:40.558Z,5.25
2018-06-19T20:24:09.583Z,4.70
2018-06-19T20:26:38.699Z,4.78
2018-06-19T20:29:07.902Z,4.53
2018-06-19T20:31:37.002Z,5.15
2018-06-19T20:34:06.613Z,4.97
2018-06-19T20:36:35.787Z,5.60
2018-06-19T20:39:06.842Z,5.42
2018-06-19T20:41:36.291Z,5.00
2018-06-19T20:44:05.511Z,5.00
2018-06-19T20:46:34.428Z,5.60
2018-06-19T20:49:03.499Z,5.10
2018-06-19T20:51:32.522Z,5.10
2018-06-19T20:54:01.505Z,5.12
2018-06-19T20:56:30.577Z,5.72
2018-06-19T20:58:59.736Z,5.58
2018-06-19T21:01:28.805Z,4.97
2018-06-19T21:03:58.355Z,5.47
2018-06-19T21:06:28.393Z,4.83
2018-06-19T21:08:57.285Z,4.93
2018-06-19T21:11:26.156Z,4.58
2018-06-19T21:13:55.226Z,4.78
2018-06-19T21:16:25.364Z,4.55
2018-06-19T21:18:54.400Z,4.30
2018-06-19T21:21:23.401Z,3.95
2018-06-19T21:23:52.546Z,3.55
2018-06-19T21:26:21.522Z,4.12
2018-06-19T21:28:50.469Z,3.95
2018-06-19T21:31:19.604Z,4.05
2018-06-19T21:33:48.858Z,3.43
2018-06-19T21:36:17.745Z,4.00
2018-06-19T21:38:47.125Z,4.35
2018-06-19T21:41:16.305Z,3.92
2018-06-19T21:43:45.295Z,3.90
2018-06-19T21:46:14.567Z,3.90
2018-06-19T21:48:43.715Z,4.03
2018-06-19T21:51:12.851Z,3.87
2018-06-19T21:53:43.465Z,4.10
2018-06-19T21:56:12.534Z,4.30
2018-06-19T21:58:41.636Z,3.57
2018-06-19T22:01:11.135Z,3.77
2018-06-19T22:03:40.378Z,3.70
2018-06-19T22:06:09.335Z,3.90
2018-06-19T22:08:44.505Z,3.47
2018-06-19T22:11:14.543Z,4.00
2018-06-19T22:13:44.732Z,3.30
2018-06-19T22:16:14.831Z,3.90
2018-06-19T22:18:43.919Z,3.60
2018-06-19T22:21:12.932Z,3.40
2018-06-19T22:23:41.983Z,3.50
2018-06-19T22:26:11.126Z,3.80
2018-06-19T22:28:40.297Z,3.70
2018-06-19T22:31:09.255Z,3.77
2018-06-19T22:33:38.496Z,3.47
2018-06-19T22:36:07.609Z,3.30
2018-06-19T22:38:36.648Z,3.70
2018-06-19T22:41:05.687Z,3.70
2018-06-19T22:43:35.291Z,4.03
2018-06-19T22:46:04.412Z,3.50
2018-06-19T22:48:33.296Z,3.33
2018-06-19T22:51:03.239Z,3.70
2018-06-19T22:53:32.468Z,3.47
2018-06-19T22:56:01.494Z,3.50
2018-06-19T22:58:34.051Z,3.30
2018-06-19T23:01:03.230Z,3.47
2018-06-19T23:03:32.298Z,3.43
2018-06-19T23:09:16.849Z,4.10
2018-06-19T23:15:22.343Z,6.57
2018-06-19T23:17:55.607Z,6.00
2018-06-19T23:20:25.392Z,6.17
2018-06-19T23:29:06.776Z,4.13
2018-06-19T23:32:38.775Z,3.90
2018-06-19T23:35:08.112Z,4.53
2018-06-19T23:37:37.304Z,3.87
2018-06-19T23:40:06.605Z,3.73
2018-06-19T23:42:36.023Z,3.90
2018-06-19T23:45:09.299Z,3.70
2018-06-19T23:47:44.165Z,3.80
2018-06-19T23:50:13.269Z,4.07
2018-06-19T23:52:42.396Z,4.10
2018-06-19T23:58:05.893Z,3.53
